TimeEDT,TemperatureF,Dew PointF,Humidity,Sea Level PressureIn,VisibilityMPH,Wind Direction,Wind SpeedMPH,Gust SpeedMPH,PrecipitationIn,Events,Conditions,WindDirDegrees,DateUTC
12:12 AM,28.4,26.6,93,30.02,10.0,ENE,5.8,-,N/A,,Scattered Clouds,60,2013-03-24 04:12:00
12:32 AM,30.2,26.6,86,30.00,10.0,ENE,4.6,-,N/A,,Scattered Clouds,60,2013-03-24 04:32:00
12:52 AM,30.2,26.6,86,30.00,10.0,ENE,5.8,-,N/A,,Clear,60,2013-03-24 04:52:00
1:12 AM,28.4,26.6,93,29.99,10.0,ENE,3.5,-,N/A,,Clear,60,2013-03-24 05:12:00
1:32 AM,30.2,26.6,86,29.98,10.0,NE,4.6,-,N/A,,Clear,40,2013-03-24 05:32:00
1:53 AM,30.2,26.6,86,29.99,10.0,Calm,Calm,-,N/A,,Clear,0,2013-03-24 05:53:00
2:13 AM,28.4,26.6,93,30.01,10.0,Calm,Calm,-,N/A,,Clear,0,2013-03-24 06:13:00
2:33 AM,28.4,26.6,93,30.00,10.0,Calm,Calm,-,N/A,,Clear,0,2013-03-24 06:33:00
2:53 AM,28.4,26.6,93,29.99,10.0,NE,3.5,-,N/A,,Clear,40,2013-03-24 06:53:00
3:13 AM,30.2,26.6,86,29.98,10.0,NE,3.5,-,N/A,,Clear,40,2013-03-24 07:13:00
3:33 AM,28.4,26.6,93,30.00,10.0,Calm,Calm,-,N/A,,Clear,0,2013-03-24 07:33:00
3:53 AM,28.4,26.6,93,29.99,10.0,Calm,Calm,-,N/A,,Clear,0,2013-03-24 07:53:00
4:13 AM,28.4,26.6,93,30.00,10.0,Calm,Calm,-,N/A,,Clear,0,2013-03-24 08:13:00
4:33 AM,28.4,26.6,93,29.99,10.0,NE,3.5,-,N/A,,Clear,40,2013-03-24 08:33:00
4:53 AM,28.4,26.6,93,29.98,10.0,NE,3.5,-,N/A,,Clear,40,2013-03-24 08:53:00
5:14 AM,28.4,26.6,93,29.97,10.0,NE,5.8,-,N/A,,Clear,50,2013-03-24 09:14:00
5:34 AM,28.4,26.6,93,29.97,10.0,ENE,4.6,-,N/A,,Clear,60,2013-03-24 09:34:00
5:54 AM,28.4,24.8,86,29.97,10.0,NE,3.5,-,N/A,,Clear,50,2013-03-24 09:54:00
6:14 AM,28.4,26.6,93,29.97,10.0,NE,3.5,-,N/A,,Clear,40,2013-03-24 10:14:00
6:34 AM,28.4,26.6,93,29.97,10.0,NE,3.5,-,N/A,,Clear,40,2013-03-24 10:34:00
6:54 AM,28.4,26.6,93,29.97,10.0,NNE,4.6,-,N/A,,Clear,30,2013-03-24 10:54:00
7:14 AM,28.4,26.6,93,29.96,10.0,NNE,3.5,-,N/A,,Clear,20,2013-03-24 11:14:00
7:34 AM,28.4,26.6,93,29.95,10.0,NE,5.8,-,N/A,,Clear,40,2013-03-24 11:34:00
7:54 AM,28.4,26.6,93,29.96,10.0,ENE,5.8,-,N/A,,Clear,60,2013-03-24 11:54:00
8:15 AM,28.4,26.6,93,29.95,10.0,NE,5.8,-,N/A,,Clear,50,2013-03-24 12:15:00
8:35 AM,30.2,26.6,86,29.95,10.0,ENE,6.9,-,N/A,,Clear,60,2013-03-24 12:35:00
8:55 AM,30.2,26.6,86,29.94,10.0,ENE,6.9,-,N/A,,Scattered Clouds,60,2013-03-24 12:55:00
9:15 AM,30.2,26.6,86,29.94,10.0,ENE,10.4,-,N/A,,Clear,70,2013-03-24 13:15:00
9:35 AM,30.2,26.6,86,29.93,10.0,ENE,8.1,-,N/A,,Clear,70,2013-03-24 13:35:00
9:55 AM,32.0,26.6,80,29.91,10.0,ENE,12.7,17.3,N/A,,Clear,60,2013-03-24 13:55:00
10:15 AM,32.0,26.6,80,29.89,10.0,ENE,10.4,-,N/A,,Clear,60,2013-03-24 14:15:00
10:35 AM,32.0,26.6,80,29.87,10.0,ENE,13.8,18.4,N/A,,Clear,60,2013-03-24 14:35:00
10:55 AM,32.0,26.6,80,29.87,10.0,ENE,10.4,20.7,N/A,,Clear,60,2013-03-24 14:55:00
11:15 AM,33.8,26.6,75,29.88,10.0,NE,10.4,16.1,N/A,,Clear,40,2013-03-24 15:15:00
11:36 AM,33.8,26.6,75,29.88,10.0,ENE,10.4,-,N/A,,Clear,60,2013-03-24 15:36:00
11:56 AM,35.6,26.6,70,29.86,10.0,NE,16.1,-,N/A,,Clear,50,2013-03-24 15:56:00
12:16 PM,35.6,24.8,65,29.84,10.0,ENE,15.0,24.2,N/A,,Clear,60,2013-03-24 16:16:00
12:36 PM,35.6,26.6,70,29.84,10.0,ENE,15.0,23.0,N/A,,Clear,70,2013-03-24 16:36:00
12:56 PM,35.6,26.6,70,29.83,10.0,ENE,16.1,20.7,N/A,,Scattered Clouds,70,2013-03-24 16:56:00
1:16 PM,35.6,28.4,75,29.81,10.0,ENE,12.7,19.6,N/A,,Scattered Clouds,60,2013-03-24 17:16:00
1:36 PM,35.6,28.4,75,29.78,10.0,NE,13.8,24.2,N/A,,Scattered Clouds,50,2013-03-24 17:36:00
1:51 PM,35.6,26.6,70,29.78,10.0,ENE,12.7,24.2,N/A,,Scattered Clouds,70,2013-03-24 17:51:00
2:11 PM,35.6,26.6,70,29.78,10.0,ENE,11.5,23.0,N/A,,Scattered Clouds,60,2013-03-24 18:11:00
2:31 PM,35.6,26.6,70,29.77,10.0,ENE,17.3,23.0,N/A,,Mostly Cloudy,60,2013-03-24 18:31:00
2:52 PM,37.4,26.6,65,29.77,10.0,ENE,12.7,18.4,N/A,,Mostly Cloudy,60,2013-03-24 18:52:00
3:12 PM,37.4,24.8,60,29.76,10.0,ENE,18.4,23.0,N/A,,Mostly Cloudy,60,2013-03-24 19:12:00
3:32 PM,37.4,26.6,65,29.75,10.0,ENE,13.8,20.7,N/A,,Overcast,70,2013-03-24 19:32:00
3:52 PM,37.4,24.8,60,29.74,10.0,ENE,16.1,23.0,N/A,,Overcast,60,2013-03-24 19:52:00
4:12 PM,37.4,24.8,60,29.73,10.0,NE,15.0,23.0,N/A,,Overcast,50,2013-03-24 20:12:00
4:32 PM,37.4,24.8,60,29.72,10.0,ENE,15.0,19.6,N/A,,Overcast,60,2013-03-24 20:32:00
4:52 PM,37.4,24.8,60,29.71,10.0,ENE,12.7,24.2,N/A,,Overcast,60,2013-03-24 20:52:00
5:12 PM,37.4,24.8,60,29.70,10.0,East,10.4,21.9,N/A,,Overcast,90,2013-03-24 21:12:00
5:32 PM,37.4,24.8,60,29.68,10.0,ENE,19.6,26.5,N/A,,Overcast,70,2013-03-24 21:32:00
5:52 PM,37.4,24.8,60,29.67,10.0,NE,17.3,23.0,N/A,,Overcast,50,2013-03-24 21:52:00
6:13 PM,37.4,24.8,60,29.65,10.0,NE,16.1,24.2,N/A,,Overcast,50,2013-03-24 22:13:00
6:33 PM,35.6,21.2,56,29.65,10.0,ENE,20.7,28.8,N/A,,Overcast,60,2013-03-24 22:33:00
6:53 PM,35.6,21.2,56,29.65,10.0,NE,16.1,21.9,N/A,,Overcast,40,2013-03-24 22:53:00
7:13 PM,35.6,21.2,56,29.64,10.0,NE,17.3,26.5,N/A,,Overcast,50,2013-03-24 23:13:00
7:33 PM,35.6,24.8,65,29.64,10.0,NE,11.5,20.7,N/A,,Overcast,50,2013-03-24 23:33:00
7:53 PM,33.8,24.8,70,29.64,10.0,NE,12.7,21.9,N/A,,Overcast,50,2013-03-24 23:53:00
8:13 PM,33.8,24.8,70,29.63,10.0,NE,13.8,23.0,N/A,,Overcast,50,2013-03-25 00:13:00
8:33 PM,33.8,24.8,70,29.63,10.0,NE,11.5,21.9,N/A,,Overcast,50,2013-03-25 00:33:00
8:53 PM,33.8,24.8,70,29.63,10.0,NE,12.7,20.7,N/A,,Overcast,40,2013-03-25 00:53:00
9:14 PM,33.8,24.8,70,29.63,10.0,NE,15.0,20.7,N/A,,Overcast,50,2013-03-25 01:14:00
9:34 PM,33.8,24.8,70,29.62,10.0,NE,12.7,18.4,N/A,,Overcast,40,2013-03-25 01:34:00
9:54 PM,33.8,24.8,70,29.61,10.0,NE,12.7,21.9,N/A,,Overcast,40,2013-03-25 01:54:00
10:14 PM,33.8,26.6,75,29.61,10.0,NE,12.7,24.2,N/A,,Overcast,40,2013-03-25 02:14:00
10:34 PM,33.8,26.6,75,29.60,10.0,NE,11.5,-,N/A,,Overcast,50,2013-03-25 02:34:00
10:54 PM,33.8,26.6,75,29.60,10.0,NE,13.8,18.4,N/A,,Overcast,50,2013-03-25 02:54:00
11:14 PM,33.8,26.6,75,29.59,10.0,NE,10.4,17.3,N/A,,Overcast,40,2013-03-25 03:14:00
11:34 PM,33.8,26.6,75,29.58,10.0,NE,10.4,18.4,N/A,,Overcast,40,2013-03-25 03:34:00
11:54 PM,33.8,24.8,70,29.58,10.0,NE,12.7,21.9,N/A,,Overcast,50,2013-03-25 03:54:00